Terminal Aerodrome Forecast
Issued by NWS Pendleton, OR

Current Version | Previous Version | Text Only | Print | Product List | Glossary On
Versions: 1 2 3 4 5 6 7 8 9 10 11 12 13 14 15 16
000
FTUS46 KPDT 061634 AAB
TAFPDT
TAF AMD
KPDT 061634Z 0617/0712 27010G20KT P6SM SCT040
     FM062100 34010G20KT P6SM VCTS SCT060CB BKN090CB
     FM070200 29008KT P6SM VCSH BKN080 OVC150
     FM070600 24006KT P6SM BKN090 OVC150=

USA.gov is the U.S. government's official web portal to all federal, state and local government web resources and services.